AKST,Max TemperatureF,Mean TemperatureF,Min TemperatureF,Max Dew PointF,MeanDew PointF,Min DewpointF,Max Humidity, Mean Humidity, Min Humidity, Max Sea Level PressureIn, Mean Sea Level PressureIn, Min Sea Level PressureIn, Max VisibilityMiles, Mean VisibilityMiles, Min VisibilityMiles, Max Wind SpeedMPH, Mean Wind SpeedMPH, Max Gust SpeedMPH,PrecipitationIn, CloudCover, Events, WindDirDegrees
2012-12-1,-24,-29,-34,-31,-35,-36,77,70,55,30.19,30.09,29.78,10,10,10,5,2,,0.00,3,,108
2012-12-2,-26,-32,-38,-32,-36,-38,84,74,58,30.17,30.05,29.85,10,10,10,5,1,,0.00,3,,135
2012-12-3,-32,-36,-41,,,,,,,30.27,30.22,29.90,10,10,7,4,1,,0.00,4,,138
2012-12-4,-27,-35,-43,-33,-34,-34,77,72,63,30.21,30.01,29.85,10,6,1,5,1,,0.00,4,Snow,173
2012-12-5,-9,-26,-43,-19,-27,-36,78,67,48,30.04,30.00,29.75,10,9,4,25,5,33,0.00,5,Snow,121
2012-12-6,-11,-20,-29,-29,-32,-35,78,74,63,30.24,30.13,30.04,10,10,10,5,2,,0.00,1,,218
2012-12-7,-7,-20,-33,-15,-27,-37,82,72,54,30.29,30.26,30.21,10,10,10,26,4,32,0.00,1,,153
2012-12-8,3,-15,-33,-7,-12,-16,72,60,41,30.22,29.83,29.43,10,5,1,43,29,55,0.00,6,Snow,106
2012-12-9,10,2,-5,-5,-6,-8,61,52,35,29.63,29.53,29.38,10,8,2,38,29,51,0.00,7,Snow,109
2012-12-10,25,16,6,4,1,-6,80,63,31,29.83,29.67,29.58,10,5,2,15,5,,0.04,8,Snow,122
2012-12-11,26,14,3,3,1,-1,92,68,35,30.04,29.90,29.62,10,7,2,18,5,,0.01,8,Snow,320
2012-12-12,19,10,1,16,10,4,93,80,63,29.57,29.27,29.08,10,9,2,23,14,30,0.01,7,Snow,111
2012-12-13,19,10,1,16,9,-1,93,85,72,29.52,29.35,29.21,10,6,0,15,6,20,0.02,8,Fog-Snow,306
2012-12-14,5,-3,-11,-1,-7,-12,88,82,68,29.49,29.42,29.29,10,8,2,5,1,,0.00,7,Snow,232
2012-12-15,-2,-11,-20,-8,-21,-26,84,75,60,29.81,29.57,29.32,10,4,2,16,10,20,0.01,8,Snow,284
2012-12-16,-17,-26,-35,-23,-26,-34,78,74,59,30.07,29.93,29.67,10,8,2,9,4,,0.00,6,Snow,292
2012-12-17,-14,-27,-40,-20,-23,-29,77,70,56,30.13,29.97,29.55,10,8,2,32,7,41,0.00,0,,131
2012-12-18,-11,-26,-40,-21,-22,-24,70,63,48,29.96,29.74,29.53,10,8,3,32,25,41,0.00,3,,111
2012-12-19,-13,-19,-25,-23,-26,-31,83,74,60,30.62,30.36,30.01,10,7,2,9,4,,0.01,6,Snow,236
2012-12-20,-17,-28,-40,-22,-29,-34,78,75,65,30.85,30.74,30.40,10,9,2,6,1,,0.00,3,,143
2012-12-21,-16,-28,-41,-25,-27,-35,77,66,50,30.84,30.67,30.33,10,9,2,24,6,29,0.00,0,,117
2012-12-22,-13,-26,-38,-23,-26,-29,67,62,44,30.55,30.36,30.03,10,10,9,30,15,39,0.00,1,,109
2012-12-23,-8,-14,-20,-18,-20,-24,65,60,44,30.22,30.04,29.92,10,10,7,38,24,54,0.00,0,Snow,112
2012-12-24,1,-6,-13,-9,-14,-18,66,62,46,29.96,29.89,29.72,10,6,2,41,35,56,0.00,3,Snow,106
2012-12-25,5,-1,-7,-5,-7,-8,66,61,45,29.94,29.84,29.69,10,8,3,41,33,58,0.00,4,Snow,106
2012-12-26,5,3,1,-7,-8,-8,63,58,45,29.81,29.73,29.61,10,10,7,39,33,54,0.00,2,Snow,109
2012-12-27,5,3,1,-6,-8,-9,64,59,45,29.63,29.61,29.59,10,10,10,36,29,48,0.00,2,,111
2012-12-28,8,4,1,-1,-4,-7,70,64,49,29.75,29.71,29.63,10,10,10,28,21,34,0.00,5,,111
2012-12-29,39,22,5,23,9,0,71,62,38,29.69,29.55,29.40,10,10,9,36,25,53,0.01,3,,115
2012-12-30,21,18,14,14,12,10,74,65,49,29.53,29.40,29.34,10,10,10,36,28,47,0.00,4,,111
2012-12-31,39,29,19,20,15,11,72,55,31,29.88,29.69,29.41,10,10,10,28,15,36,0.01,3,,135